Terminal Aerodrome Forecast
Issued by NWS Bismarck, ND

Home | Current Version | Previous Version | Text Only | Print | Product List | Glossary Off
Versions: 1 2 3 4 5 6 7 8 9 10 11 12 13 14 15 16 17

219
FTUS43 KBIS 201720
TAFISN
TAF
KISN 201720Z 2018/2118 20006KT P6SM SKC
     FM210300 27009KT P6SM SCT250
     FM210500 28016G24KT P6SM SCT250 WS020/29040KT
     FM211700 27019G28KT P6SM SCT080 WS007/27020KT=

USA.gov is the U.S. government's official web portal to all federal, state and local government web resources and services.